createdAt,value
2018-02-04T00:02:20.379Z,1.30
2018-02-04T00:04:48.118Z,1.30
2018-02-04T00:07:16.166Z,1.30
2018-02-04T00:09:44.396Z,1.30
2018-02-04T00:12:12.366Z,1.30
2018-02-04T00:14:40.885Z,1.30
2018-02-04T00:17:08.678Z,1.30
2018-02-04T00:19:37.263Z,1.30
2018-02-04T00:22:04.962Z,1.30
2018-02-04T00:24:32.975Z,1.30
2018-02-04T00:27:01.598Z,1.30
2018-02-04T00:29:30.171Z,1.30
2018-02-04T00:31:58.561Z,1.30
2018-02-04T00:34:27.141Z,1.30
2018-02-04T00:36:56.305Z,1.30
2018-02-04T00:39:24.185Z,1.30
2018-02-04T00:41:52.204Z,1.30
2018-02-04T00:44:20.016Z,1.30
2018-02-04T00:47:06.062Z,1.40
2018-02-04T00:49:35.612Z,1.20
2018-02-04T00:52:03.412Z,1.20
2018-02-04T00:54:31.174Z,1.20
2018-02-04T00:56:59.649Z,1.20
2018-02-04T00:59:27.791Z,1.20
2018-02-04T01:01:55.491Z,1.20
2018-02-04T01:04:23.441Z,1.30
2018-02-04T01:06:51.593Z,1.20
2018-02-04T01:09:20.139Z,1.30
2018-02-04T01:11:48.052Z,1.30
2018-02-04T01:14:16.012Z,1.20
2018-02-04T01:16:44.328Z,1.00
2018-02-04T01:19:13.585Z,1.00
2018-02-04T01:21:41.723Z,1.00
2018-02-04T01:24:09.471Z,0.90
2018-02-04T01:26:37.280Z,0.90
2018-02-04T01:29:05.046Z,0.70
2018-02-04T01:31:32.806Z,0.70
2018-02-04T01:34:00.852Z,0.80
2018-02-04T01:36:29.466Z,0.90
2018-02-04T01:38:57.251Z,0.80
2018-02-04T01:41:25.197Z,0.90
2018-02-04T01:43:53.579Z,0.90
2018-02-04T01:46:22.062Z,0.90
2018-02-04T01:48:50.596Z,0.90
2018-02-04T01:51:18.637Z,0.80
2018-02-04T01:53:47.062Z,0.80
2018-02-04T01:56:14.916Z,0.80
2018-02-04T01:58:47.692Z,0.80
2018-02-04T02:01:21.892Z,0.80
2018-02-04T02:03:50.423Z,0.80
2018-02-04T02:06:18.358Z,0.80
2018-02-04T02:08:47.591Z,0.80
2018-02-04T02:11:15.364Z,0.80
2018-02-04T02:13:44.137Z,0.80
2018-02-04T02:16:12.005Z,0.70
2018-02-04T02:18:40.050Z,0.80
2018-02-04T02:21:08.562Z,0.80
2018-02-04T02:23:37.654Z,0.80
2018-02-04T02:26:07.326Z,0.80
2018-02-04T02:28:35.264Z,0.80
2018-02-04T02:31:04.542Z,0.80
2018-02-04T02:33:32.417Z,0.80
2018-02-04T02:36:00.980Z,0.90
2018-02-04T02:38:28.972Z,0.90
2018-02-04T02:40:56.667Z,0.80
2018-02-04T02:43:24.410Z,0.90
2018-02-04T02:45:52.899Z,0.90
2018-02-04T02:48:21.271Z,0.90
2018-02-04T02:50:49.786Z,0.90
2018-02-04T02:53:17.525Z,0.90
2018-02-04T02:55:46.030Z,0.90
2018-02-04T02:58:13.754Z,0.80
2018-02-04T03:00:42.248Z,0.70
2018-02-04T03:03:10.185Z,0.70
2018-02-04T03:05:38.765Z,0.70
2018-02-04T03:08:07.455Z,0.60
2018-02-04T03:10:35.939Z,0.60
2018-02-04T03:13:05.289Z,0.60
2018-02-04T03:15:33.878Z,0.60
2018-02-04T03:18:01.920Z,0.60
2018-02-04T03:20:30.384Z,0.60
2018-02-04T03:22:58.209Z,0.60
2018-02-04T03:25:25.971Z,0.50
2018-02-04T03:27:55.120Z,0.40
2018-02-04T03:30:23.753Z,0.30
2018-02-04T03:32:51.757Z,0.30
2018-02-04T03:35:20.157Z,0.30
2018-02-04T03:37:47.899Z,0.30
2018-02-04T03:40:15.908Z,0.20
2018-02-04T03:42:43.726Z,0.10
2018-02-04T03:45:12.858Z,0.00
2018-02-04T03:47:41.450Z,0.00
2018-02-04T03:50:09.237Z,0.00
2018-02-04T03:52:37.769Z,0.00
2018-02-04T03:55:06.712Z,-0.10
2018-02-04T03:57:34.468Z,-0.20
2018-02-04T04:00:02.338Z,-0.20
2018-02-04T04:02:30.693Z,-0.20
2018-02-04T04:04:58.507Z,-0.30
2018-02-04T04:07:26.301Z,-0.30
2018-02-04T04:09:54.964Z,-0.30
2018-02-04T04:12:23.284Z,-0.30
2018-02-04T04:14:51.561Z,-0.30
2018-02-04T04:17:20.067Z,-0.40
2018-02-04T04:19:47.778Z,-0.40
2018-02-04T04:22:15.539Z,-0.40
2018-02-04T04:24:43.541Z,-0.40
2018-02-04T04:27:11.277Z,-0.40
2018-02-04T04:29:39.712Z,-0.50
2018-02-04T04:32:07.371Z,-0.50
2018-02-04T04:34:35.913Z,-0.50
2018-02-04T04:37:03.608Z,-0.60
2018-02-04T04:39:31.381Z,-0.50
2018-02-04T04:44:40.768Z,-0.60
2018-02-04T04:47:08.766Z,-0.60
2018-02-04T04:49:37.989Z,-0.60
2018-02-04T04:52:05.869Z,-0.60
2018-02-04T04:54:34.448Z,-0.70
2018-02-04T04:57:02.942Z,-0.70
2018-02-04T04:59:30.850Z,-0.70
2018-02-04T05:01:59.761Z,-0.70
2018-02-04T05:04:27.503Z,-0.70
2018-02-04T05:06:55.356Z,-0.70
2018-02-04T05:09:24.221Z,-0.70
2018-02-04T05:11:52.327Z,-0.80
2018-02-04T05:14:20.225Z,-0.80
2018-02-04T05:16:48.089Z,-0.80
2018-02-04T05:19:15.851Z,-0.80
2018-02-04T05:21:43.630Z,-0.80
2018-02-04T05:24:11.433Z,-0.80
2018-02-04T05:26:39.987Z,-0.80
2018-02-04T05:29:09.387Z,-0.80
2018-02-04T05:31:38.176Z,-0.80
2018-02-04T05:34:06.562Z,-0.90
2018-02-04T05:36:34.360Z,-0.90
2018-02-04T05:39:02.256Z,-0.90
2018-02-04T05:41:30.083Z,-0.90
2018-02-04T05:43:57.888Z,-0.90
2018-02-04T05:46:25.757Z,-0.90
2018-02-04T05:48:53.460Z,-0.90
2018-02-04T05:51:22.046Z,-1.00
2018-02-04T05:53:50.692Z,-0.90
2018-02-04T05:56:19.101Z,-0.90
2018-02-04T05:58:47.451Z,-1.00
2018-02-04T06:01:15.199Z,-1.00
2018-02-04T06:03:43.027Z,-1.10
2018-02-04T06:06:11.703Z,-1.00
2018-02-04T06:08:40.179Z,-1.00
2018-02-04T06:11:08.834Z,-1.00
2018-02-04T06:13:37.285Z,-1.10
2018-02-04T06:16:05.293Z,-1.10
2018-02-04T06:18:34.018Z,-1.00
2018-02-04T06:21:02.056Z,-1.00
2018-02-04T06:23:31.337Z,-1.00
2018-02-04T06:26:00.790Z,-1.10
2018-02-04T06:28:28.541Z,-1.10
2018-02-04T06:30:57.311Z,-1.10
2018-02-04T06:33:25.156Z,-1.20
2018-02-04T06:35:53.927Z,-1.30
2018-02-04T06:38:22.429Z,-1.30
2018-02-04T06:40:50.916Z,-1.30
2018-02-04T06:43:18.786Z,-1.30
2018-02-04T06:45:47.468Z,-1.40
2018-02-04T06:48:16.149Z,-1.30
2018-02-04T06:50:45.575Z,-1.40
2018-02-04T06:53:14.037Z,-1.40
2018-02-04T06:55:42.820Z,-1.40
2018-02-04T06:58:11.952Z,-1.40
2018-02-04T07:00:39.753Z,-1.40
2018-02-04T07:03:07.819Z,-1.30
2018-02-04T07:05:36.559Z,-1.30
2018-02-04T07:08:04.496Z,-1.30
2018-02-04T07:10:33.819Z,-1.20
2018-02-04T07:13:02.308Z,-1.20
2018-02-04T07:15:30.950Z,-1.20
2018-02-04T07:17:58.638Z,-1.20
2018-02-04T07:20:27.035Z,-1.20
2018-02-04T07:22:55.240Z,-1.20
2018-02-04T07:25:25.109Z,-1.20
2018-02-04T07:27:54.391Z,-1.10
2018-02-04T07:30:23.553Z,-1.10
2018-02-04T07:32:51.886Z,-1.10
2018-02-04T07:35:20.626Z,-1.10
2018-02-04T07:37:48.343Z,-1.10
2018-02-04T07:40:17.286Z,-1.10
2018-02-04T07:42:45.573Z,-1.10
2018-02-04T07:45:14.917Z,-1.10
2018-02-04T07:47:42.749Z,-1.10
2018-02-04T07:50:11.360Z,-1.00
2018-02-04T07:52:39.746Z,-1.00
2018-02-04T07:55:08.317Z,-1.10
2018-02-04T07:57:36.849Z,-1.10
2018-02-04T08:00:04.813Z,-1.10
2018-02-04T08:02:33.071Z,-1.00
2018-02-04T08:05:00.853Z,-1.00
2018-02-04T08:07:29.689Z,-1.00
2018-02-04T08:09:58.444Z,-0.90
2018-02-04T08:12:26.262Z,-0.90
2018-02-04T08:14:54.281Z,-0.80
2018-02-04T08:17:22.533Z,-0.70
2018-02-04T08:19:50.301Z,-0.70
2018-02-04T08:22:18.139Z,-0.70
2018-02-04T08:24:47.269Z,-0.60
2018-02-04T08:27:15.856Z,-0.40
2018-02-04T08:29:43.726Z,-0.40
2018-02-04T08:32:12.314Z,-0.30
2018-02-04T08:34:40.842Z,-0.20
2018-02-04T08:37:09.395Z,-0.10
2018-02-04T08:39:37.726Z,-0.10
2018-02-04T08:42:08.653Z,0.10
2018-02-04T08:44:36.428Z,0.10
2018-02-04T08:47:04.150Z,0.10
2018-02-04T08:49:32.059Z,0.20
2018-02-04T08:52:00.804Z,0.20
2018-02-04T08:54:30.293Z,0.30
2018-02-04T08:56:58.429Z,0.30
2018-02-04T08:59:26.794Z,0.40
2018-02-04T09:01:54.577Z,0.40
2018-02-04T09:04:22.803Z,0.50
2018-02-04T09:06:50.673Z,0.60
2018-02-04T09:09:18.469Z,0.70
2018-02-04T09:11:46.440Z,0.80
2018-02-04T09:14:14.300Z,0.70
2018-02-04T09:16:42.173Z,0.80
2018-02-04T09:19:09.969Z,0.90
2018-02-04T09:21:38.463Z,1.20
2018-02-04T09:24:07.565Z,1.20
2018-02-04T09:26:35.844Z,1.20
2018-02-04T09:29:03.602Z,1.30
2018-02-04T09:31:32.973Z,1.30
2018-02-04T09:34:03.135Z,1.40
2018-02-04T09:36:32.582Z,1.50
2018-02-04T09:39:01.173Z,1.50
2018-02-04T09:41:29.851Z,1.50
2018-02-04T09:43:59.064Z,1.50
2018-02-04T09:46:26.915Z,1.50
2018-02-04T09:48:54.628Z,1.60
2018-02-04T09:51:22.669Z,1.70
2018-02-04T09:53:52.081Z,1.90
2018-02-04T09:56:20.208Z,1.90
2018-02-04T09:58:48.745Z,2.00
2018-02-04T10:01:16.505Z,1.90
2018-02-04T10:03:46.215Z,2.00
2018-02-04T10:06:15.460Z,2.00
2018-02-04T10:08:43.593Z,2.00
2018-02-04T10:11:12.340Z,2.10
2018-02-04T10:13:40.712Z,2.20
2018-02-04T10:16:10.019Z,2.20
2018-02-04T10:18:40.523Z,2.20
2018-02-04T10:21:08.396Z,2.10
2018-02-04T10:23:39.062Z,2.20
2018-02-04T10:26:06.987Z,2.30
2018-02-04T10:28:35.880Z,2.40
2018-02-04T10:31:03.984Z,2.60
2018-02-04T10:33:31.810Z,2.80
2018-02-04T10:38:33.699Z,3.00
2018-02-04T10:41:02.669Z,3.10
2018-02-04T10:43:30.971Z,3.10
2018-02-04T10:46:00.666Z,2.90
2018-02-04T10:48:28.436Z,2.80
2018-02-04T10:51:03.828Z,2.90
2018-02-04T10:53:33.339Z,3.20
2018-02-04T10:56:01.064Z,3.20
2018-02-04T10:58:30.406Z,3.20
2018-02-04T11:00:58.960Z,3.20
2018-02-04T11:03:28.036Z,3.30
2018-02-04T11:05:55.808Z,3.30
2018-02-04T11:08:23.845Z,3.10
2018-02-04T11:10:52.231Z,3.10
2018-02-04T11:13:21.218Z,3.20
2018-02-04T11:15:49.270Z,3.10
2018-02-04T11:18:19.010Z,3.20
2018-02-04T11:20:46.873Z,3.10
2018-02-04T11:23:15.501Z,3.10
2018-02-04T11:25:44.759Z,3.30
2018-02-04T11:28:12.506Z,3.20
2018-02-04T11:30:40.272Z,3.20
2018-02-04T11:33:08.938Z,3.10
2018-02-04T11:35:36.926Z,3.10
2018-02-04T11:38:04.924Z,3.10
2018-02-04T11:40:33.377Z,3.30
2018-02-04T11:43:01.407Z,3.30
2018-02-04T11:45:29.344Z,3.30
2018-02-04T11:47:57.934Z,3.20
2018-02-04T11:50:26.300Z,3.20
2018-02-04T11:52:54.805Z,3.20
2018-02-04T11:55:22.633Z,3.30
2018-02-04T11:57:50.516Z,3.60
2018-02-04T12:00:18.245Z,3.90
2018-02-04T12:02:46.437Z,4.20
2018-02-04T12:05:15.562Z,4.00
2018-02-04T12:07:43.352Z,3.90
2018-02-04T12:10:11.305Z,3.90
2018-02-04T12:12:40.375Z,3.90
2018-02-04T12:15:09.317Z,4.10
2018-02-04T12:17:37.112Z,4.30
2018-02-04T12:20:04.965Z,4.40
2018-02-04T12:22:33.763Z,4.80
2018-02-04T12:25:02.273Z,4.80
2018-02-04T12:27:31.002Z,4.90
2018-02-04T12:29:58.794Z,5.10
2018-02-04T12:32:26.906Z,5.10
2018-02-04T12:34:55.949Z,5.50
2018-02-04T12:37:24.681Z,5.50
2018-02-04T12:39:52.496Z,5.40
2018-02-04T12:42:20.726Z,5.30
2018-02-04T12:44:49.858Z,5.40
2018-02-04T12:47:17.637Z,5.40
2018-02-04T12:49:45.284Z,5.10
2018-02-04T12:52:13.155Z,4.60
2018-02-04T12:54:41.154Z,4.40
2018-02-04T12:57:10.556Z,4.20
2018-02-04T12:59:39.043Z,4.30
2018-02-04T13:02:08.105Z,4.30
2018-02-04T13:04:36.380Z,4.30
2018-02-04T13:07:04.461Z,4.10
2018-02-04T13:09:32.313Z,3.90
2018-02-04T13:12:00.211Z,4.00
2018-02-04T13:14:29.649Z,3.60
2018-02-04T13:16:58.395Z,3.60
2018-02-04T13:19:27.324Z,3.60
2018-02-04T13:21:55.287Z,3.60
2018-02-04T13:24:23.117Z,3.70
2018-02-04T13:26:51.792Z,3.60
2018-02-04T13:29:20.238Z,3.60
2018-02-04T13:31:48.019Z,3.60
2018-02-04T13:34:15.757Z,3.60
2018-02-04T13:36:43.562Z,3.60
2018-02-04T13:39:12.232Z,3.50
2018-02-04T13:41:40.405Z,3.50
2018-02-04T13:44:08.396Z,3.50
2018-02-04T13:46:36.245Z,3.60
2018-02-04T13:49:04.925Z,3.40
2018-02-04T13:51:32.921Z,3.40
2018-02-04T13:54:01.047Z,3.30
2018-02-04T13:56:29.434Z,3.20
2018-02-04T13:58:57.212Z,3.10
2018-02-04T14:01:25.848Z,3.10
2018-02-04T14:03:54.513Z,3.20
2018-02-04T14:06:23.102Z,3.10
2018-02-04T14:08:50.862Z,3.10
2018-02-04T14:11:18.739Z,3.10
2018-02-04T14:13:46.436Z,3.00
2018-02-04T14:16:14.308Z,3.00
2018-02-04T14:18:42.026Z,3.10
2018-02-04T14:21:10.660Z,3.20
2018-02-04T14:23:38.744Z,3.10
2018-02-04T14:26:06.596Z,3.10
2018-02-04T14:28:35.280Z,3.00
2018-02-04T14:31:03.121Z,2.80
2018-02-04T14:33:31.810Z,2.80
2018-02-04T14:35:59.854Z,2.80
2018-02-04T14:38:28.734Z,2.70
2018-02-04T14:40:57.394Z,2.70
2018-02-04T14:43:26.072Z,2.70
2018-02-04T14:45:55.291Z,2.80
2018-02-04T14:48:24.152Z,2.70
2018-02-04T14:50:52.064Z,2.80
2018-02-04T14:53:20.194Z,2.90
2018-02-04T14:55:48.050Z,2.70
2018-02-04T14:58:16.925Z,2.70
2018-02-04T15:00:45.213Z,2.70
2018-02-04T15:03:13.186Z,2.70
2018-02-04T15:05:41.026Z,2.70
2018-02-04T15:08:09.840Z,2.60
2018-02-04T15:10:38.442Z,2.40
2018-02-04T15:13:06.384Z,2.30
2018-02-04T15:15:34.151Z,2.30
2018-02-04T15:18:03.346Z,2.20
2018-02-04T15:20:31.953Z,2.20
2018-02-04T15:22:59.652Z,2.20
2018-02-04T15:25:27.431Z,2.10
2018-02-04T15:27:55.342Z,2.00
2018-02-04T15:30:24.213Z,2.20
2018-02-04T15:32:52.374Z,2.20
2018-02-04T15:37:48.546Z,2.20
2018-02-04T15:40:17.033Z,2.30
2018-02-04T15:42:46.357Z,2.20
2018-02-04T15:45:14.484Z,2.10
2018-02-04T15:47:43.881Z,2.20
2018-02-04T15:50:12.377Z,2.20
2018-02-04T15:52:41.901Z,2.20
2018-02-04T15:55:10.038Z,2.20
2018-02-04T15:57:37.828Z,2.10
2018-02-04T16:00:05.652Z,2.00
2018-02-04T16:02:33.529Z,2.00
2018-02-04T16:05:01.433Z,1.90
2018-02-04T16:07:29.311Z,1.90
2018-02-04T16:09:58.171Z,1.80
2018-02-04T16:12:26.734Z,1.80
2018-02-04T16:14:54.452Z,1.80
2018-02-04T16:17:22.268Z,1.90
2018-02-04T16:19:50.851Z,1.90
2018-02-04T16:22:18.791Z,1.90
2018-02-04T16:24:47.520Z,2.00
2018-02-04T16:27:15.367Z,2.00
2018-02-04T16:29:43.475Z,2.00
2018-02-04T16:32:11.570Z,2.00
2018-02-04T16:34:40.115Z,2.00
2018-02-04T16:37:08.706Z,2.00
2018-02-04T16:39:37.321Z,2.00
2018-02-04T16:42:05.532Z,2.00
2018-02-04T16:44:33.512Z,2.00
2018-02-04T16:47:03.009Z,2.00
2018-02-04T16:49:30.977Z,2.00
2018-02-04T16:52:00.506Z,1.90
2018-02-04T16:54:28.482Z,1.90
2018-02-04T16:56:57.965Z,2.00
2018-02-04T16:59:26.598Z,2.00
2018-02-04T17:01:54.923Z,2.00
2018-02-04T17:04:22.784Z,2.10
2018-02-04T17:06:51.246Z,2.10
2018-02-04T17:09:19.018Z,2.10
2018-02-04T17:11:47.517Z,2.20
2018-02-04T17:14:16.290Z,2.00
2018-02-04T17:16:44.247Z,2.10
2018-02-04T17:19:12.328Z,2.00
2018-02-04T17:21:40.293Z,2.10
2018-02-04T17:24:08.157Z,2.10
2018-02-04T17:26:37.178Z,2.00
2018-02-04T17:29:06.379Z,2.00
2018-02-04T17:31:35.341Z,2.00
2018-02-04T17:34:08.773Z,2.10
2018-02-04T17:36:37.384Z,2.10
2018-02-04T17:39:05.426Z,2.10
2018-02-04T17:41:35.988Z,2.10
2018-02-04T17:44:04.498Z,2.10
2018-02-04T17:46:32.298Z,2.20
2018-02-04T17:49:00.691Z,2.20
2018-02-04T17:51:30.010Z,2.20
2018-02-04T17:53:59.144Z,2.20
2018-02-04T17:56:27.104Z,2.20
2018-02-04T17:58:56.269Z,2.20
2018-02-04T18:01:24.906Z,2.20
2018-02-04T18:03:52.796Z,2.20
2018-02-04T18:06:22.266Z,2.30
2018-02-04T18:08:50.324Z,2.30
2018-02-04T18:11:18.906Z,2.20
2018-02-04T18:13:46.773Z,2.20
2018-02-04T18:16:14.742Z,2.30
2018-02-04T18:18:43.552Z,2.30
2018-02-04T18:21:12.230Z,2.30
2018-02-04T18:23:41.740Z,2.40
2018-02-04T18:26:10.305Z,2.40
2018-02-04T18:28:38.281Z,2.40
2018-02-04T18:31:06.944Z,2.40
2018-02-04T18:33:34.923Z,2.40
2018-02-04T18:36:03.849Z,2.30
2018-02-04T18:38:32.195Z,2.40
2018-02-04T18:40:59.916Z,2.40
2018-02-04T18:43:27.923Z,2.30
2018-02-04T18:45:55.867Z,2.30
2018-02-04T18:48:24.470Z,2.40
2018-02-04T18:50:53.093Z,2.50
2018-02-04T18:53:21.030Z,2.50
2018-02-04T18:55:49.912Z,2.50
2018-02-04T18:58:18.597Z,2.60
2018-02-04T19:00:46.451Z,2.60
2018-02-04T19:03:15.049Z,2.70
2018-02-04T19:05:43.869Z,2.70
2018-02-04T19:08:12.296Z,2.80
2018-02-04T19:10:40.382Z,2.90
2018-02-04T19:13:08.555Z,2.90
2018-02-04T19:15:36.252Z,2.90
2018-02-04T19:18:04.922Z,2.80
2018-02-04T19:20:32.697Z,2.70
2018-02-04T19:23:00.533Z,2.80
2018-02-04T19:25:29.270Z,2.70
2018-02-04T19:27:58.541Z,2.90
2018-02-04T19:30:26.510Z,2.80
2018-02-04T19:32:55.180Z,2.90
2018-02-04T19:35:23.679Z,3.00
2018-02-04T19:37:52.650Z,3.00
2018-02-04T19:40:21.357Z,3.00
2018-02-04T19:42:49.043Z,3.00
2018-02-04T19:45:18.444Z,3.00
2018-02-04T19:47:47.073Z,3.00
2018-02-04T19:50:15.579Z,3.00
2018-02-04T19:52:44.197Z,2.90
2018-02-04T19:55:13.341Z,2.90
2018-02-04T19:57:41.031Z,2.90
2018-02-04T20:00:09.780Z,2.80
2018-02-04T20:02:38.228Z,2.70
2018-02-04T20:05:06.784Z,2.70
2018-02-04T20:07:35.741Z,2.70
2018-02-04T20:10:03.607Z,2.70
2018-02-04T20:12:31.472Z,2.70
2018-02-04T20:14:59.331Z,2.70
2018-02-04T20:17:27.205Z,2.70
2018-02-04T20:19:54.948Z,2.60
2018-02-04T20:22:22.743Z,2.60
2018-02-04T20:24:50.875Z,2.60
2018-02-04T20:27:18.612Z,2.60
2018-02-04T20:29:46.605Z,2.60
2018-02-04T20:32:26.741Z,2.60
2018-02-04T20:34:55.161Z,2.60
2018-02-04T20:37:23.028Z,2.60
2018-02-04T20:39:51.431Z,2.60
2018-02-04T20:42:19.187Z,2.60
2018-02-04T20:44:47.951Z,2.50
2018-02-04T20:47:16.644Z,2.50
2018-02-04T20:49:45.220Z,2.50
2018-02-04T20:52:13.807Z,2.50
2018-02-04T20:54:41.616Z,2.40
2018-02-04T20:57:10.394Z,2.40
2018-02-04T20:59:38.888Z,2.40
2018-02-04T21:02:07.489Z,2.30
2018-02-04T21:04:35.403Z,2.40
2018-02-04T21:07:04.003Z,2.20
2018-02-04T21:09:32.671Z,2.20
2018-02-04T21:12:02.262Z,2.10
2018-02-04T21:14:30.123Z,2.10
2018-02-04T21:16:57.995Z,2.10
2018-02-04T21:19:26.998Z,2.00
2018-02-04T21:21:54.860Z,2.00
2018-02-04T21:24:23.540Z,2.00
2018-02-04T21:26:51.609Z,1.90
2018-02-04T21:29:19.457Z,1.90
2018-02-04T21:31:47.522Z,1.90
2018-02-04T21:34:15.237Z,1.90
2018-02-04T21:36:43.993Z,1.80
2018-02-04T21:39:11.969Z,1.80
2018-02-04T21:41:39.829Z,1.80
2018-02-04T21:44:08.427Z,1.80
2018-02-04T21:46:36.276Z,1.80
2018-02-04T21:49:04.110Z,1.80
2018-02-04T21:51:32.719Z,1.70
2018-02-04T21:54:00.515Z,1.70
2018-02-04T21:56:28.310Z,1.70
2018-02-04T21:58:56.004Z,1.70
2018-02-04T22:01:24.469Z,1.70
2018-02-04T22:03:52.326Z,1.70
2018-02-04T22:06:20.399Z,1.70
2018-02-04T22:08:49.084Z,1.70
2018-02-04T22:11:16.841Z,1.80
2018-02-04T22:13:44.615Z,1.80
2018-02-04T22:16:13.157Z,1.80
2018-02-04T22:18:41.807Z,1.80
2018-02-04T22:21:10.595Z,1.80
2018-02-04T22:23:38.339Z,1.80
2018-02-04T22:26:06.842Z,1.90
2018-02-04T22:28:34.652Z,1.90
2018-02-04T22:31:03.141Z,1.90
2018-02-04T22:33:31.738Z,1.90
2018-02-04T22:35:59.504Z,1.90
2018-02-04T22:38:27.396Z,1.90
2018-02-04T22:40:55.165Z,1.90
2018-02-04T22:43:22.909Z,2.00
2018-02-04T22:45:50.696Z,2.00
2018-02-04T22:48:18.470Z,2.00
2018-02-04T22:50:47.378Z,2.00
2018-02-04T22:53:16.072Z,2.10
2018-02-04T22:55:45.387Z,2.10
2018-02-04T22:58:13.190Z,2.10
2018-02-04T23:00:41.032Z,2.20
2018-02-04T23:03:08.762Z,2.20
2018-02-04T23:05:37.507Z,2.20
2018-02-04T23:08:06.087Z,2.10
2018-02-04T23:10:34.875Z,2.10
2018-02-04T23:13:02.899Z,2.10
2018-02-04T23:15:30.812Z,2.00
2018-02-04T23:17:58.620Z,1.80
2018-02-04T23:20:28.520Z,1.70
2018-02-04T23:22:56.391Z,1.70
2018-02-04T23:25:24.167Z,1.70
2018-02-04T23:27:51.938Z,1.60
2018-02-04T23:30:19.767Z,1.50
2018-02-04T23:32:48.950Z,1.40
2018-02-04T23:35:17.632Z,1.40
2018-02-04T23:37:45.352Z,1.40
2018-02-04T23:40:14.168Z,1.30
2018-02-04T23:42:42.680Z,1.30
2018-02-04T23:45:11.005Z,1.30
2018-02-04T23:47:38.856Z,1.30
2018-02-04T23:50:07.675Z,1.30
2018-02-04T23:52:36.345Z,1.20
2018-02-04T23:55:04.170Z,1.20
2018-02-04T23:57:32.596Z,1.10
